Time,TemperatureF,DewpointF,PressureIn,WindDirection,WindDirectionDegrees,WindSpeedMPH,WindSpeedGustMPH,Humidity,HourlyPrecipIn,Conditions,Clouds,dailyrainin,SoftwareType,DateUTC
2013-01-04 00:02:00,43.5,33.3,30.25,West,272,0.0,0.0,67,0.00,,,0.00,meteohub,2013-01-04 08:02:00,
2013-01-04 00:07:00,43.2,33.3,30.24,West,272,0.0,0.0,68,0.00,,,0.00,meteohub,2013-01-04 08:07:00,
2013-01-04 00:12:00,43.0,33.4,30.24,West,272,0.0,0.0,69,0.00,,,0.00,meteohub,2013-01-04 08:12:00,
2013-01-04 00:17:00,42.6,33.1,30.24,West,272,0.0,0.0,69,0.00,,,0.00,meteohub,2013-01-04 08:17:00,
2013-01-04 00:22:00,42.4,31.8,30.24,West,272,0.0,0.0,66,0.00,,,0.00,meteohub,2013-01-04 08:22:00,
2013-01-04 00:27:00,42.6,31.6,30.24,West,272,0.0,1.0,65,0.00,,,0.00,meteohub,2013-01-04 08:27:00,
2013-01-04 00:32:00,42.6,32.4,30.25,West,272,0.0,1.0,67,0.00,,,0.00,meteohub,2013-01-04 08:32:00,
2013-01-04 00:37:00,42.4,32.2,30.25,West,272,0.0,1.0,67,0.00,,,0.00,meteohub,2013-01-04 08:37:00,
2013-01-04 00:42:00,42.3,32.2,30.25,West,272,0.0,0.0,67,0.00,,,0.00,meteohub,2013-01-04 08:42:00,
2013-01-04 00:47:00,42.3,32.5,30.25,West,272,0.0,0.0,68,0.00,,,0.00,meteohub,2013-01-04 08:47:00,
2013-01-04 00:52:00,42.3,32.5,30.25,West,272,0.0,0.0,68,0.00,,,0.00,meteohub,2013-01-04 08:52:00,
2013-01-04 00:57:00,42.1,32.7,30.25,West,272,0.0,0.0,69,0.00,,,0.00,meteohub,2013-01-04 08:57:00,
2013-01-04 01:02:00,41.9,32.5,30.25,West,272,0.0,0.0,69,0.00,,,0.00,meteohub,2013-01-04 09:02:00,
2013-01-04 01:07:00,41.5,32.5,30.25,West,272,0.0,0.0,70,0.00,,,0.00,meteohub,2013-01-04 09:07:00,
2013-01-04 01:12:00,41.5,32.5,30.24,West,272,0.0,0.0,70,0.00,,,0.00,meteohub,2013-01-04 09:12:00,
2013-01-04 01:17:00,41.2,32.5,30.25,West,272,0.0,0.0,71,0.00,,,0.00,meteohub,2013-01-04 09:17:00,
2013-01-04 01:22:00,40.6,32.7,30.25,West,272,0.0,1.0,73,0.00,,,0.00,meteohub,2013-01-04 09:22:00,
2013-01-04 01:27:00,40.5,32.5,30.25,West,272,0.0,1.0,73,0.00,,,0.00,meteohub,2013-01-04 09:27:00,
2013-01-04 01:32:00,40.3,32.4,30.25,West,272,0.0,1.0,73,0.00,,,0.00,meteohub,2013-01-04 09:32:00,
2013-01-04 01:37:00,40.3,32.0,30.25,West,272,0.0,1.0,72,0.00,,,0.00,meteohub,2013-01-04 09:37:00,
2013-01-04 01:42:00,40.3,32.4,30.25,West,272,0.0,0.0,73,0.00,,,0.00,meteohub,2013-01-04 09:42:00,
2013-01-04 01:47:00,40.5,32.5,30.25,West,272,0.0,0.0,73,0.00,,,0.00,meteohub,2013-01-04 09:47:00,
2013-01-04 01:52:00,40.3,32.0,30.25,West,272,0.0,0.0,72,0.00,,,0.00,meteohub,2013-01-04 09:52:00,
2013-01-04 01:57:00,40.3,31.6,30.25,West,272,0.0,1.0,71,0.00,,,0.00,meteohub,2013-01-04 09:57:00,
2013-01-04 02:02:00,40.3,32.0,30.25,West,272,0.0,1.0,72,0.00,,,0.00,meteohub,2013-01-04 10:02:00,
2013-01-04 02:07:00,40.5,32.2,30.25,West,272,0.0,1.0,72,0.00,,,0.00,meteohub,2013-01-04 10:07:00,
2013-01-04 02:12:00,40.5,32.5,30.25,West,272,0.0,0.0,73,0.00,,,0.00,meteohub,2013-01-04 10:12:00,
2013-01-04 02:17:00,40.5,32.5,30.25,West,272,0.0,0.0,73,0.00,,,0.00,meteohub,2013-01-04 10:17:00,
2013-01-04 02:22:00,40.1,31.8,30.25,West,272,0.0,0.0,72,0.00,,,0.00,meteohub,2013-01-04 10:22:00,
2013-01-04 02:27:00,39.9,31.6,30.25,West,272,0.0,0.0,72,0.00,,,0.00,meteohub,2013-01-04 10:27:00,
2013-01-04 02:32:00,39.9,31.6,30.25,West,272,0.0,0.0,72,0.00,,,0.00,meteohub,2013-01-04 10:32:00,
2013-01-04 02:37:00,39.7,31.1,30.25,West,272,0.0,0.0,71,0.00,,,0.00,meteohub,2013-01-04 10:37:00,
2013-01-04 02:42:00,39.6,31.3,30.25,West,272,0.0,0.0,72,0.00,,,0.00,meteohub,2013-01-04 10:42:00,
2013-01-04 02:47:00,39.4,31.5,30.25,West,272,0.0,0.0,73,0.00,,,0.00,meteohub,2013-01-04 10:47:00,
2013-01-04 02:52:00,39.6,31.3,30.25,West,272,0.0,0.0,72,0.00,,,0.00,meteohub,2013-01-04 10:52:00,
2013-01-04 02:57:00,39.6,31.3,30.25,West,272,0.0,0.0,72,0.00,,,0.00,meteohub,2013-01-04 10:57:00,
2013-01-04 03:02:00,39.4,30.7,30.25,West,272,0.0,0.0,71,0.00,,,0.00,meteohub,2013-01-04 11:02:00,
2013-01-04 03:07:00,39.4,30.7,30.25,West,272,0.0,0.0,71,0.00,,,0.00,meteohub,2013-01-04 11:07:00,
2013-01-04 03:12:00,39.2,30.6,30.25,West,272,0.0,0.0,71,0.00,,,0.00,meteohub,2013-01-04 11:12:00,
2013-01-04 03:17:00,39.0,30.7,30.25,West,272,0.0,0.0,72,0.00,,,0.00,meteohub,2013-01-04 11:17:00,
2013-01-04 03:22:00,39.0,30.0,30.25,West,272,0.0,0.0,70,0.00,,,0.00,meteohub,2013-01-04 11:22:00,
2013-01-04 03:27:00,39.0,29.7,30.25,West,272,0.0,0.0,69,0.00,,,0.00,meteohub,2013-01-04 11:27:00,
2013-01-04 03:32:00,38.8,29.5,30.25,West,272,0.0,0.0,69,0.00,,,0.00,meteohub,2013-01-04 11:32:00,
2013-01-04 03:37:00,38.8,29.5,30.25,West,272,0.0,0.0,69,0.00,,,0.00,meteohub,2013-01-04 11:37:00,
2013-01-04 03:42:00,38.7,28.9,30.25,West,272,0.0,1.0,68,0.00,,,0.00,meteohub,2013-01-04 11:42:00,
2013-01-04 03:48:00,38.8,28.8,30.24,West,272,0.0,1.0,67,0.00,,,0.00,meteohub,2013-01-04 11:48:00,
2013-01-04 03:53:00,38.7,28.9,30.24,West,272,0.0,1.0,68,0.00,,,0.00,meteohub,2013-01-04 11:53:00,
2013-01-04 03:58:00,38.5,28.8,30.24,West,272,0.0,1.0,68,0.00,,,0.00,meteohub,2013-01-04 11:58:00,
2013-01-04 04:03:00,38.3,28.2,30.24,West,273,0.0,1.0,67,0.00,,,0.00,meteohub,2013-01-04 12:03:00,
2013-01-04 04:08:00,38.5,27.7,30.24,West,273,0.0,1.0,65,0.00,,,0.00,meteohub,2013-01-04 12:08:00,
2013-01-04 04:13:00,38.7,26.8,30.24,West,273,0.0,1.0,62,0.00,,,0.00,meteohub,2013-01-04 12:13:00,
2013-01-04 04:18:00,39.0,27.9,30.24,West,273,0.0,1.0,64,0.00,,,0.00,meteohub,2013-01-04 12:18:00,
2013-01-04 04:23:00,39.2,28.0,30.24,West,273,0.0,0.0,64,0.00,,,0.00,meteohub,2013-01-04 12:23:00,
2013-01-04 04:28:00,39.0,28.2,30.24,West,273,0.0,0.0,65,0.00,,,0.00,meteohub,2013-01-04 12:28:00,
2013-01-04 04:33:00,38.8,28.0,30.24,West,273,0.0,0.0,65,0.00,,,0.00,meteohub,2013-01-04 12:33:00,
2013-01-04 04:39:00,38.7,28.6,30.24,West,273,0.0,0.0,67,0.00,,,0.00,meteohub,2013-01-04 12:39:00,
2013-01-04 04:44:00,38.5,28.0,30.24,West,273,0.0,0.0,66,0.00,,,0.00,meteohub,2013-01-04 12:44:00,
2013-01-04 04:49:00,38.5,28.0,30.24,West,273,0.0,0.0,66,0.00,,,0.00,meteohub,2013-01-04 12:49:00,
2013-01-04 04:54:00,38.3,28.8,30.24,West,273,0.0,0.0,68,0.00,,,0.00,meteohub,2013-01-04 12:54:00,
2013-01-04 04:59:00,38.3,27.9,30.24,West,273,0.0,0.0,66,0.00,,,0.00,meteohub,2013-01-04 12:59:00,
2013-01-04 05:04:00,38.3,28.2,30.24,West,273,0.0,0.0,67,0.00,,,0.00,meteohub,2013-01-04 13:04:00,
2013-01-04 05:09:00,38.1,28.2,30.24,West,273,0.0,0.0,67,0.00,,,0.00,meteohub,2013-01-04 13:09:00,
2013-01-04 05:15:00,38.1,28.2,30.25,West,273,0.0,0.0,67,0.00,,,0.00,meteohub,2013-01-04 13:15:00,
2013-01-04 05:20:00,37.9,27.1,30.25,West,273,0.0,0.0,65,0.00,,,0.00,meteohub,2013-01-04 13:20:00,
2013-01-04 05:25:00,38.1,27.3,30.25,West,273,0.0,0.0,65,0.00,,,0.00,meteohub,2013-01-04 13:25:00,
2013-01-04 05:30:00,38.1,28.2,30.25,West,273,0.0,0.0,67,0.00,,,0.00,meteohub,2013-01-04 13:30:00,
2013-01-04 05:35:00,37.9,28.8,30.25,West,273,0.0,0.0,69,0.00,,,0.00,meteohub,2013-01-04 13:35:00,
2013-01-04 05:40:00,37.8,28.9,30.25,West,273,0.0,0.0,70,0.00,,,0.00,meteohub,2013-01-04 13:40:00,
2013-01-04 05:45:00,37.6,28.4,30.25,West,272,0.0,0.0,69,0.00,,,0.00,meteohub,2013-01-04 13:45:00,
2013-01-04 05:50:00,37.2,28.0,30.25,West,273,0.0,0.0,69,0.00,,,0.00,meteohub,2013-01-04 13:50:00,
2013-01-04 05:55:00,37.2,28.0,30.26,West,273,0.0,0.0,69,0.00,,,0.00,meteohub,2013-01-04 13:55:00,
2013-01-04 06:00:00,37.2,28.0,30.26,West,273,0.0,0.0,69,0.00,,,0.00,meteohub,2013-01-04 14:00:00,
2013-01-04 06:05:00,37.0,28.2,30.27,West,273,0.0,0.0,70,0.00,,,0.00,meteohub,2013-01-04 14:05:00,
2013-01-04 06:10:00,36.7,28.2,30.27,West,277,0.0,2.0,71,0.00,,,0.00,meteohub,2013-01-04 14:10:00,
2013-01-04 06:15:00,36.5,28.4,30.27,West,278,2.0,2.0,72,0.00,,,0.00,meteohub,2013-01-04 14:15:00,
2013-01-04 06:21:00,36.3,28.6,30.27,West,279,0.0,2.0,73,0.00,,,0.00,meteohub,2013-01-04 14:21:00,
2013-01-04 06:26:00,36.3,27.9,30.27,West,279,0.0,2.0,71,0.00,,,0.00,meteohub,2013-01-04 14:26:00,
2013-01-04 06:31:00,36.3,27.1,30.27,West,279,0.0,2.0,69,0.00,,,0.00,meteohub,2013-01-04 14:31:00,
2013-01-04 06:36:00,36.5,27.7,30.27,West,279,0.0,1.0,70,0.00,,,0.00,meteohub,2013-01-04 14:36:00,
2013-01-04 06:41:00,36.7,28.6,30.27,West,279,0.0,2.0,72,0.00,,,0.00,meteohub,2013-01-04 14:41:00,
2013-01-04 06:46:00,37.0,27.5,30.28,West,279,0.0,2.0,68,0.00,,,0.00,meteohub,2013-01-04 14:46:00,
2013-01-04 06:51:00,37.2,27.3,30.28,West,279,0.0,1.0,67,0.00,,,0.00,meteohub,2013-01-04 14:51:00,
2013-01-04 06:56:00,37.4,27.5,30.28,West,279,0.0,1.0,67,0.00,,,0.00,meteohub,2013-01-04 14:56:00,
2013-01-04 07:01:00,37.2,27.3,30.28,WNW,294,0.0,0.0,67,0.00,,,0.00,meteohub,2013-01-04 15:01:00,
2013-01-04 07:07:00,37.2,27.7,30.28,WNW,294,0.0,2.0,68,0.00,,,0.00,meteohub,2013-01-04 15:07:00,
2013-01-04 07:12:00,37.0,27.5,30.29,WNW,294,0.0,2.0,68,0.00,,,0.00,meteohub,2013-01-04 15:12:00,
2013-01-04 07:17:00,36.9,27.0,30.29,WNW,294,0.0,1.0,67,0.00,,,0.00,meteohub,2013-01-04 15:17:00,
2013-01-04 07:22:00,36.9,27.0,30.29,WNW,294,0.0,0.0,67,0.00,,,0.00,meteohub,2013-01-04 15:22:00,
2013-01-04 07:27:00,37.0,27.1,30.29,WNW,294,0.0,0.0,67,0.00,,,0.00,meteohub,2013-01-04 15:27:00,
2013-01-04 07:32:00,37.2,27.0,30.30,WNW,294,0.0,0.0,66,0.00,,,0.00,meteohub,2013-01-04 15:32:00,
2013-01-04 07:37:00,37.6,27.0,30.30,WNW,294,0.0,0.0,65,0.00,,,0.00,meteohub,2013-01-04 15:37:00,
2013-01-04 07:42:00,37.9,27.1,30.30,WNW,294,0.0,0.0,65,0.00,,,0.00,meteohub,2013-01-04 15:42:00,
2013-01-04 07:47:00,38.3,27.5,30.30,WNW,294,0.0,1.0,65,0.00,,,0.00,meteohub,2013-01-04 15:47:00,
2013-01-04 07:52:00,38.5,28.0,30.30,WNW,294,0.0,1.0,66,0.00,,,0.00,meteohub,2013-01-04 15:52:00,
2013-01-04 07:57:00,38.3,27.9,30.30,WNW,294,0.0,1.0,66,0.00,,,0.00,meteohub,2013-01-04 15:57:00,
2013-01-04 08:03:00,38.1,28.2,30.30,WNW,294,0.0,0.0,67,0.00,,,0.00,meteohub,2013-01-04 16:03:00,
2013-01-04 08:08:00,38.1,27.9,30.31,WNW,294,0.0,0.0,66,0.00,,,0.00,meteohub,2013-01-04 16:08:00,
2013-01-04 08:13:00,38.1,27.9,30.31,WNW,294,0.0,0.0,66,0.00,,,0.00,meteohub,2013-01-04 16:13:00,
2013-01-04 08:18:00,38.3,27.9,30.31,WNW,294,0.0,0.0,66,0.00,,,0.00,meteohub,2013-01-04 16:18:00,
2013-01-04 08:23:00,38.5,28.0,30.31,WNW,294,0.0,0.0,66,0.00,,,0.00,meteohub,2013-01-04 16:23:00,
2013-01-04 08:28:00,38.7,27.1,30.31,WNW,294,0.0,0.0,63,0.00,,,0.00,meteohub,2013-01-04 16:28:00,
2013-01-04 08:33:00,39.0,26.8,30.31,WNW,294,0.0,0.0,61,0.00,,,0.00,meteohub,2013-01-04 16:33:00,
2013-01-04 08:38:00,39.7,28.9,30.32,WNW,294,0.0,0.0,65,0.00,,,0.00,meteohub,2013-01-04 16:38:00,
2013-01-04 08:43:00,40.6,30.2,30.32,WNW,294,0.0,0.0,66,0.00,,,0.00,meteohub,2013-01-04 16:43:00,
2013-01-04 08:49:00,41.4,29.7,30.32,WNW,294,0.0,0.0,63,0.00,,,0.00,meteohub,2013-01-04 16:49:00,
2013-01-04 08:54:00,42.1,28.8,30.32,WNW,294,0.0,0.0,59,0.00,,,0.00,meteohub,2013-01-04 16:54:00,
2013-01-04 08:59:00,42.4,27.9,30.32,WNW,294,0.0,0.0,56,0.00,,,0.00,meteohub,2013-01-04 16:59:00,
2013-01-04 09:04:00,43.7,29.1,30.33,WNW,294,0.0,0.0,56,0.00,,,0.00,meteohub,2013-01-04 17:04:00,
2013-01-04 09:09:00,45.9,29.3,30.33,North,355,2.0,2.0,52,0.00,,,0.00,meteohub,2013-01-04 17:09:00,
2013-01-04 09:14:00,48.2,30.4,30.33,North,0,2.0,4.0,50,0.00,,,0.00,meteohub,2013-01-04 17:14:00,
2013-01-04 09:19:00,49.8,30.9,30.33,North,5,2.0,4.0,48,0.00,,,0.00,meteohub,2013-01-04 17:19:00,
2013-01-04 09:24:00,51.3,31.6,30.33,North,5,1.0,4.0,47,0.00,,,0.00,meteohub,2013-01-04 17:24:00,
2013-01-04 09:29:00,52.3,31.6,30.34,North,5,1.0,3.0,45,0.00,,,0.00,meteohub,2013-01-04 17:29:00,
2013-01-04 09:34:00,53.2,32.4,30.34,NNE,12,0.0,3.0,45,0.00,,,0.00,meteohub,2013-01-04 17:34:00,
2013-01-04 09:39:00,54.3,32.9,30.34,North,355,2.0,4.0,44,0.00,,,0.00,meteohub,2013-01-04 17:39:00,
2013-01-04 09:45:00,55.0,33.4,30.34,NNE,13,2.0,4.0,44,0.00,,,0.00,meteohub,2013-01-04 17:45:00,
2013-01-04 09:50:00,55.9,33.8,30.34,North,11,1.0,5.0,43,0.00,,,0.00,meteohub,2013-01-04 17:50:00,
2013-01-04 09:55:00,56.7,33.8,30.34,NNE,14,4.0,5.0,42,0.00,,,0.00,meteohub,2013-01-04 17:55:00,
2013-01-04 10:00:00,57.0,32.4,30.34,NNW,348,2.0,6.0,39,0.00,,,0.00,meteohub,2013-01-04 18:00:00,
2013-01-04 10:05:00,57.6,33.4,30.34,NNE,17,3.0,6.0,40,0.00,,,0.00,meteohub,2013-01-04 18:05:00,
2013-01-04 10:10:00,57.7,32.4,30.34,NNE,17,4.0,6.0,38,0.00,,,0.00,meteohub,2013-01-04 18:10:00,
2013-01-04 10:15:00,57.9,31.8,30.34,NNW,348,4.0,6.0,37,0.00,,,0.00,meteohub,2013-01-04 18:15:00,
2013-01-04 10:20:00,58.3,31.5,30.33,North,0,2.0,6.0,36,0.00,,,0.00,meteohub,2013-01-04 18:20:00,
2013-01-04 10:25:00,58.5,30.2,30.33,NNE,13,3.0,6.0,34,0.00,,,0.00,meteohub,2013-01-04 18:25:00,
2013-01-04 10:31:00,58.6,28.0,30.33,NNE,12,2.0,6.0,31,0.00,,,0.00,meteohub,2013-01-04 18:31:00,
2013-01-04 10:36:00,58.8,27.5,30.33,North,9,2.0,6.0,30,0.00,,,0.00,meteohub,2013-01-04 18:36:00,
2013-01-04 10:41:00,59.2,27.7,30.32,North,349,0.0,6.0,30,0.00,,,0.00,meteohub,2013-01-04 18:41:00,
2013-01-04 10:46:00,59.5,27.3,30.32,North,5,2.0,6.0,29,0.00,,,0.00,meteohub,2013-01-04 18:46:00,
2013-01-04 10:51:00,59.7,26.6,30.32,NNW,344,4.0,5.0,28,0.00,,,0.00,meteohub,2013-01-04 18:51:00,
2013-01-04 10:56:00,60.1,26.8,30.32,NNW,346,0.0,6.0,28,0.00,,,0.00,meteohub,2013-01-04 18:56:00,
2013-01-04 11:01:00,60.4,27.1,30.32,NNW,345,1.0,6.0,28,0.00,,,0.00,meteohub,2013-01-04 19:01:00,
2013-01-04 11:06:00,60.6,25.5,30.31,NNW,348,1.0,5.0,26,0.00,,,0.00,meteohub,2013-01-04 19:06:00,
2013-01-04 11:11:00,61.0,25.0,30.31,NNW,340,0.0,4.0,25,0.00,,,0.00,meteohub,2013-01-04 19:11:00,
2013-01-04 11:16:00,61.2,24.1,30.31,NNW,334,2.0,4.0,24,0.00,,,0.00,meteohub,2013-01-04 19:16:00,
2013-01-04 11:22:00,61.3,24.3,30.30,NNW,344,1.0,7.0,24,0.00,,,0.00,meteohub,2013-01-04 19:22:00,
2013-01-04 11:27:00,61.5,24.4,30.30,NNW,341,1.0,7.0,24,0.00,,,0.00,meteohub,2013-01-04 19:27:00,
2013-01-04 11:32:00,61.9,22.6,30.29,NNW,347,0.0,5.0,22,0.00,,,0.00,meteohub,2013-01-04 19:32:00,
2013-01-04 11:37:00,62.2,21.7,30.29,NNW,346,0.0,4.0,21,0.00,,,0.00,meteohub,2013-01-04 19:37:00,
2013-01-04 11:42:00,62.6,23.2,30.29,NNW,347,1.0,4.0,22,0.00,,,0.00,meteohub,2013-01-04 19:42:00,
2013-01-04 11:47:00,63.0,24.6,30.28,NNW,346,0.0,2.0,23,0.00,,,0.00,meteohub,2013-01-04 19:47:00,
2013-01-04 11:52:00,63.1,24.8,30.28,NNW,346,0.0,2.0,23,0.00,,,0.00,meteohub,2013-01-04 19:52:00,
2013-01-04 11:57:00,63.3,23.9,30.28,North,355,0.0,2.0,22,0.00,,,0.00,meteohub,2013-01-04 19:57:00,
2013-01-04 12:02:00,63.5,23.9,30.27,North,355,0.0,5.0,22,0.00,,,0.00,meteohub,2013-01-04 20:02:00,
2013-01-04 12:07:00,63.7,25.2,30.27,North,351,2.0,5.0,23,0.00,,,0.00,meteohub,2013-01-04 20:07:00,
2013-01-04 12:13:00,63.9,23.2,30.27,North,351,0.0,4.0,21,0.00,,,0.00,meteohub,2013-01-04 20:13:00,
2013-01-04 12:18:00,64.0,22.1,30.27,North,355,0.0,4.0,20,0.00,,,0.00,meteohub,2013-01-04 20:18:00,
2013-01-04 12:23:00,64.2,22.3,30.27,NNW,346,1.0,5.0,20,0.00,,,0.00,meteohub,2013-01-04 20:23:00,
2013-01-04 12:28:00,64.0,22.1,30.27,NNE,21,1.0,5.0,20,0.00,,,0.00,meteohub,2013-01-04 20:28:00,
2013-01-04 12:33:00,64.0,22.1,30.26,NNE,21,0.0,5.0,20,0.00,,,0.00,meteohub,2013-01-04 20:33:00,
2013-01-04 12:38:00,64.0,23.4,30.26,NNE,21,0.0,4.0,21,0.00,,,0.00,meteohub,2013-01-04 20:38:00,
2013-01-04 12:43:00,64.2,21.0,30.26,NNE,21,0.0,4.0,19,0.00,,,0.00,meteohub,2013-01-04 20:43:00,
2013-01-04 12:48:00,64.6,21.4,30.25,NNE,21,1.0,2.0,19,0.00,,,0.00,meteohub,2013-01-04 20:48:00,
2013-01-04 12:53:00,64.8,20.3,30.25,NNW,340,0.0,3.0,18,0.00,,,0.00,meteohub,2013-01-04 20:53:00,
2013-01-04 12:59:00,64.9,22.8,30.25,NNW,340,0.0,5.0,20,0.00,,,0.00,meteohub,2013-01-04 20:59:00,
2013-01-04 13:04:00,65.3,24.4,30.25,SW,219,0.0,5.0,21,0.00,,,0.00,meteohub,2013-01-04 21:04:00,
2013-01-04 13:09:00,65.8,24.8,30.25,SW,227,3.0,5.0,21,0.00,,,0.00,meteohub,2013-01-04 21:09:00,
2013-01-04 13:14:00,66.4,24.1,30.25,WSW,241,0.0,7.0,20,0.00,,,0.00,meteohub,2013-01-04 21:14:00,
2013-01-04 13:19:00,66.6,25.3,30.25,South,184,0.0,7.0,21,0.00,,,0.00,meteohub,2013-01-04 21:19:00,
2013-01-04 13:24:00,66.6,25.3,30.25,SSW,198,3.0,7.0,21,0.00,,,0.00,meteohub,2013-01-04 21:24:00,
2013-01-04 13:29:00,66.7,25.5,30.24,SSW,213,0.0,6.0,21,0.00,,,0.00,meteohub,2013-01-04 21:29:00,
2013-01-04 13:34:00,66.7,24.4,30.24,SW,230,0.0,7.0,20,0.00,,,0.00,meteohub,2013-01-04 21:34:00,
2013-01-04 13:39:00,66.7,26.6,30.25,SSW,209,3.0,7.0,22,0.00,,,0.00,meteohub,2013-01-04 21:39:00,
2013-01-04 13:44:00,66.6,23.0,30.24,WSW,245,4.0,7.0,19,0.00,,,0.00,meteohub,2013-01-04 21:44:00,
2013-01-04 13:50:00,66.6,23.0,30.24,SW,217,2.0,6.0,19,0.00,,,0.00,meteohub,2013-01-04 21:50:00,
2013-01-04 13:55:00,66.4,25.3,30.24,SSW,205,2.0,6.0,21,0.00,,,0.00,meteohub,2013-01-04 21:55:00,
2013-01-04 14:00:00,66.2,23.9,30.24,SW,226,0.0,6.0,20,0.00,,,0.00,meteohub,2013-01-04 22:00:00,
2013-01-04 14:05:00,66.0,23.7,30.24,SSW,213,1.0,6.0,20,0.00,,,0.00,meteohub,2013-01-04 22:05:00,
2013-01-04 14:10:00,66.4,25.3,30.24,WSW,248,0.0,6.0,21,0.00,,,0.00,meteohub,2013-01-04 22:10:00,
2013-01-04 14:15:00,66.6,26.6,30.24,SW,223,0.0,5.0,22,0.00,,,0.00,meteohub,2013-01-04 22:15:00,
2013-01-04 14:20:00,66.7,23.2,30.24,SW,226,3.0,3.0,19,0.00,,,0.00,meteohub,2013-01-04 22:20:00,
2013-01-04 14:26:00,66.9,23.4,30.24,SW,226,0.0,4.0,19,0.00,,,0.00,meteohub,2013-01-04 22:26:00,
2013-01-04 14:31:00,67.1,24.6,30.24,SSW,211,0.0,4.0,20,0.00,,,0.00,meteohub,2013-01-04 22:31:00,
2013-01-04 14:36:00,66.9,23.4,30.24,WNW,296,0.0,5.0,19,0.00,,,0.00,meteohub,2013-01-04 22:36:00,
2013-01-04 14:41:00,67.1,23.5,30.24,SW,225,0.0,5.0,19,0.00,,,0.00,meteohub,2013-01-04 22:41:00,
2013-01-04 14:46:00,67.3,26.1,30.24,South,180,0.0,5.0,21,0.00,,,0.00,meteohub,2013-01-04 22:46:00,
2013-01-04 14:51:00,67.3,24.8,30.24,South,184,0.0,3.0,20,0.00,,,0.00,meteohub,2013-01-04 22:51:00,
2013-01-04 14:56:00,67.3,24.8,30.24,SW,232,1.0,3.0,20,0.00,,,0.00,meteohub,2013-01-04 22:56:00,
2013-01-04 15:01:00,66.9,23.4,30.24,West,267,1.0,3.0,19,0.00,,,0.00,meteohub,2013-01-04 23:01:00,
2013-01-04 15:06:00,66.7,21.9,30.24,South,190,0.0,3.0,18,0.00,,,0.00,meteohub,2013-01-04 23:06:00,
2013-01-04 15:11:00,66.7,24.4,30.24,SSW,205,0.0,3.0,20,0.00,,,0.00,meteohub,2013-01-04 23:11:00,
2013-01-04 15:17:00,66.7,23.2,30.24,SSW,206,0.0,3.0,19,0.00,,,0.00,meteohub,2013-01-04 23:17:00,
2013-01-04 15:22:00,66.7,24.4,30.24,SW,222,0.0,3.0,20,0.00,,,0.00,meteohub,2013-01-04 23:22:00,
2013-01-04 15:27:00,66.7,23.2,30.24,SW,220,0.0,3.0,19,0.00,,,0.00,meteohub,2013-01-04 23:27:00,
2013-01-04 15:32:00,66.6,24.3,30.24,SW,220,0.0,3.0,20,0.00,,,0.00,meteohub,2013-01-04 23:32:00,
2013-01-04 15:37:00,66.7,24.4,30.24,SW,221,0.0,3.0,20,0.00,,,0.00,meteohub,2013-01-04 23:37:00,
2013-01-04 15:42:00,66.7,25.5,30.24,SW,221,0.0,2.0,21,0.00,,,0.00,meteohub,2013-01-04 23:42:00,
2013-01-04 15:47:00,67.1,24.6,30.24,SW,221,0.0,2.0,20,0.00,,,0.00,meteohub,2013-01-04 23:47:00,
2013-01-04 15:52:00,66.7,24.4,30.24,SW,221,0.0,2.0,20,0.00,,,0.00,meteohub,2013-01-04 23:52:00,
2013-01-04 15:57:00,66.6,24.3,30.24,SW,221,0.0,1.0,20,0.00,,,0.00,meteohub,2013-01-04 23:57:00,
2013-01-04 16:02:00,66.2,25.2,30.24,SW,221,0.0,1.0,21,0.00,,,0.00,meteohub,2013-01-05 00:02:00,
2013-01-04 16:07:00,66.4,24.1,30.24,SW,221,0.0,1.0,20,0.00,,,0.00,meteohub,2013-01-05 00:07:00,
2013-01-04 16:12:00,66.4,21.6,30.24,SW,221,0.0,1.0,18,0.00,,,0.00,meteohub,2013-01-05 00:12:00,
2013-01-04 16:17:00,66.2,21.4,30.24,SW,221,0.0,1.0,18,0.00,,,0.00,meteohub,2013-01-05 00:17:00,
2013-01-04 16:22:00,66.2,21.4,30.24,SW,221,0.0,1.0,18,0.00,,,0.00,meteohub,2013-01-05 00:22:00,
2013-01-04 16:27:00,65.8,21.2,30.24,SW,221,0.0,1.0,18,0.00,,,0.00,meteohub,2013-01-05 00:27:00,
2013-01-04 16:32:00,65.7,21.0,30.25,SW,221,0.0,1.0,18,0.00,,,0.00,meteohub,2013-01-05 00:32:00,
2013-01-04 16:37:00,64.9,21.7,30.24,SW,235,0.0,1.0,19,0.00,,,0.00,meteohub,2013-01-05 00:37:00,
2013-01-04 16:42:00,63.9,21.9,30.24,SW,235,0.0,1.0,20,0.00,,,0.00,meteohub,2013-01-05 00:42:00,
2013-01-04 16:47:00,63.0,21.2,30.24,SW,235,0.0,1.0,20,0.00,,,0.00,meteohub,2013-01-05 00:47:00,
2013-01-04 16:52:00,62.2,21.7,30.24,SW,235,0.0,1.0,21,0.00,,,0.00,meteohub,2013-01-05 00:52:00,
2013-01-04 16:57:00,61.5,21.2,30.24,SW,235,0.0,0.0,21,0.00,,,0.00,meteohub,2013-01-05 00:57:00,
2013-01-04 17:02:00,61.0,21.9,30.25,SW,235,0.0,0.0,22,0.00,,,0.00,meteohub,2013-01-05 01:02:00,
2013-01-04 17:07:00,60.3,22.3,30.25,SW,235,0.0,0.0,23,0.00,,,0.00,meteohub,2013-01-05 01:07:00,
2013-01-04 17:12:00,59.5,22.6,30.25,SW,235,0.0,0.0,24,0.00,,,0.00,meteohub,2013-01-05 01:12:00,
2013-01-04 17:17:00,59.2,22.5,30.25,SW,235,0.0,0.0,24,0.00,,,0.00,meteohub,2013-01-05 01:17:00,
2013-01-04 17:22:00,58.5,22.8,30.25,SW,235,0.0,0.0,25,0.00,,,0.00,meteohub,2013-01-05 01:22:00,
2013-01-04 17:27:00,57.9,24.1,30.25,SW,235,0.0,0.0,27,0.00,,,0.00,meteohub,2013-01-05 01:27:00,
2013-01-04 17:33:00,57.6,23.9,30.25,SW,235,0.0,0.0,27,0.00,,,0.00,meteohub,2013-01-05 01:33:00,
2013-01-04 17:38:00,57.4,23.7,30.25,SW,235,0.0,1.0,27,0.00,,,0.00,meteohub,2013-01-05 01:38:00,
2013-01-04 17:43:00,57.4,24.6,30.25,SW,236,0.0,1.0,28,0.00,,,0.00,meteohub,2013-01-05 01:43:00,
2013-01-04 17:48:00,57.0,26.6,30.25,SW,236,0.0,1.0,31,0.00,,,0.00,meteohub,2013-01-05 01:48:00,
2013-01-04 17:53:00,56.5,24.6,30.25,SW,236,0.0,1.0,29,0.00,,,0.00,meteohub,2013-01-05 01:53:00,
2013-01-04 17:58:00,56.3,24.4,30.25,SW,236,0.0,1.0,29,0.00,,,0.00,meteohub,2013-01-05 01:58:00,
2013-01-04 18:03:00,56.1,24.3,30.26,SW,236,0.0,1.0,29,0.00,,,0.00,meteohub,2013-01-05 02:03:00,
2013-01-04 18:08:00,56.1,24.3,30.26,SW,236,0.0,1.0,29,0.00,,,0.00,meteohub,2013-01-05 02:08:00,
2013-01-04 18:13:00,55.9,24.1,30.26,SW,236,0.0,1.0,29,0.00,,,0.00,meteohub,2013-01-05 02:13:00,
2013-01-04 18:18:00,55.9,24.1,30.26,WSW,237,0.0,1.0,29,0.00,,,0.00,meteohub,2013-01-05 02:18:00,
2013-01-04 18:23:00,55.9,25.7,30.26,WSW,237,0.0,1.0,31,0.00,,,0.00,meteohub,2013-01-05 02:23:00,
2013-01-04 18:28:00,55.6,27.0,30.26,WSW,237,0.0,1.0,33,0.00,,,0.00,meteohub,2013-01-05 02:28:00,
2013-01-04 18:33:00,55.2,26.6,30.26,WSW,238,0.0,1.0,33,0.00,,,0.00,meteohub,2013-01-05 02:33:00,
2013-01-04 18:39:00,55.0,26.4,30.26,North,11,0.0,2.0,33,0.00,,,0.00,meteohub,2013-01-05 02:39:00,
2013-01-04 18:44:00,55.0,27.9,30.26,North,11,0.0,2.0,35,0.00,,,0.00,meteohub,2013-01-05 02:44:00,
2013-01-04 18:49:00,54.9,28.4,30.26,North,11,0.0,2.0,36,0.00,,,0.00,meteohub,2013-01-05 02:49:00,
2013-01-04 18:54:00,54.1,28.4,30.27,North,11,0.0,2.0,37,0.00,,,0.00,meteohub,2013-01-05 02:54:00,
2013-01-04 18:59:00,53.4,29.1,30.26,North,11,0.0,1.0,39,0.00,,,0.00,meteohub,2013-01-05 02:59:00,
2013-01-04 19:04:00,52.9,29.3,30.27,North,11,0.0,0.0,40,0.00,,,0.00,meteohub,2013-01-05 03:04:00,
2013-01-04 19:09:00,52.3,29.3,30.27,North,11,0.0,0.0,41,0.00,,,0.00,meteohub,2013-01-05 03:09:00,
2013-01-04 19:14:00,52.0,28.9,30.27,North,11,0.0,0.0,41,0.00,,,0.00,meteohub,2013-01-05 03:14:00,
2013-01-04 19:19:00,51.4,29.1,30.27,North,11,0.0,0.0,42,0.00,,,0.00,meteohub,2013-01-05 03:19:00,
2013-01-04 19:24:00,51.1,28.8,30.27,North,11,0.0,0.0,42,0.00,,,0.00,meteohub,2013-01-05 03:24:00,
2013-01-04 19:29:00,50.7,29.1,30.27,North,11,0.0,0.0,43,0.00,,,0.00,meteohub,2013-01-05 03:29:00,
2013-01-04 19:34:00,50.4,28.8,30.27,North,11,0.0,0.0,43,0.00,,,0.00,meteohub,2013-01-05 03:34:00,
2013-01-04 19:39:00,50.0,28.9,30.27,North,11,0.0,0.0,44,0.00,,,0.00,meteohub,2013-01-05 03:39:00,
2013-01-04 19:44:00,49.6,29.7,30.27,North,11,0.0,0.0,46,0.00,,,0.00,meteohub,2013-01-05 03:44:00,
2013-01-04 19:50:00,49.5,29.5,30.28,North,11,0.0,0.0,46,0.00,,,0.00,meteohub,2013-01-05 03:50:00,
2013-01-04 19:55:00,49.1,29.1,30.28,North,11,0.0,0.0,46,0.00,,,0.00,meteohub,2013-01-05 03:55:00,
2013-01-04 20:00:00,48.9,29.1,30.28,North,11,0.0,0.0,46,0.00,,,0.00,meteohub,2013-01-05 04:00:00,
2013-01-04 20:05:00,48.7,29.8,30.28,North,11,0.0,0.0,48,0.00,,,0.00,meteohub,2013-01-05 04:05:00,
2013-01-04 20:10:00,48.6,30.2,30.28,North,11,0.0,0.0,49,0.00,,,0.00,meteohub,2013-01-05 04:10:00,
2013-01-04 20:15:00,48.6,29.8,30.28,North,11,0.0,0.0,48,0.00,,,0.00,meteohub,2013-01-05 04:15:00,
2013-01-04 20:20:00,48.4,30.0,30.28,North,11,0.0,0.0,49,0.00,,,0.00,meteohub,2013-01-05 04:20:00,
2013-01-04 20:25:00,48.2,30.4,30.29,North,11,0.0,0.0,50,0.00,,,0.00,meteohub,2013-01-05 04:25:00,
2013-01-04 20:30:00,48.0,30.2,30.29,North,11,0.0,0.0,50,0.00,,,0.00,meteohub,2013-01-05 04:30:00,
2013-01-04 20:35:00,47.7,30.0,30.29,North,11,0.0,0.0,50,0.00,,,0.00,meteohub,2013-01-05 04:35:00,
2013-01-04 20:40:00,47.5,29.8,30.29,North,11,0.0,0.0,50,0.00,,,0.00,meteohub,2013-01-05 04:40:00,
2013-01-04 20:46:00,47.1,30.4,30.30,North,11,0.0,0.0,52,0.00,,,0.00,meteohub,2013-01-05 04:46:00,
2013-01-04 20:51:00,46.8,30.0,30.30,North,11,0.0,0.0,52,0.00,,,0.00,meteohub,2013-01-05 04:51:00,
2013-01-04 20:56:00,46.6,30.4,30.29,North,11,0.0,0.0,53,0.00,,,0.00,meteohub,2013-01-05 04:56:00,
2013-01-04 21:00:00,46.2,30.6,30.30,North,11,0.0,0.0,54,0.00,,,0.00,meteohub,2013-01-05 05:00:00,
2013-01-04 21:01:00,46.2,30.6,30.30,North,11,0.0,0.0,54,0.00,,,0.00,meteohub,2013-01-05 05:01:00,
2013-01-04 21:03:00,46.2,30.6,30.30,North,11,0.0,0.0,54,0.00,,,0.00,meteohub,2013-01-05 05:03:00,
2013-01-04 21:08:00,45.9,30.2,30.30,North,11,0.0,0.0,54,0.00,,,0.00,meteohub,2013-01-05 05:08:00,
2013-01-04 21:13:00,45.7,30.9,30.30,North,11,0.0,0.0,56,0.00,,,0.00,meteohub,2013-01-05 05:13:00,
2013-01-04 21:18:00,45.5,30.7,30.30,North,11,0.0,0.0,56,0.00,,,0.00,meteohub,2013-01-05 05:18:00,
2013-01-04 21:23:00,45.1,30.0,30.30,North,11,0.0,0.0,55,0.00,,,0.00,meteohub,2013-01-05 05:23:00,
2013-01-04 21:28:00,45.1,30.4,30.30,North,11,0.0,0.0,56,0.00,,,0.00,meteohub,2013-01-05 05:28:00,
2013-01-04 21:33:00,45.0,30.2,30.30,North,11,0.0,0.0,56,0.00,,,0.00,meteohub,2013-01-05 05:33:00,
2013-01-04 21:39:00,44.8,30.0,30.30,North,11,0.0,1.0,56,0.00,,,0.00,meteohub,2013-01-05 05:39:00,
2013-01-04 21:44:00,44.6,30.7,30.30,North,11,0.0,1.0,58,0.00,,,0.00,meteohub,2013-01-05 05:44:00,
2013-01-04 21:49:00,44.4,30.2,30.30,North,11,0.0,1.0,57,0.00,,,0.00,meteohub,2013-01-05 05:49:00,
2013-01-04 21:54:00,44.2,30.4,30.31,North,11,0.0,0.0,58,0.00,,,0.00,meteohub,2013-01-05 05:54:00,
2013-01-04 21:59:00,44.4,30.6,30.30,North,11,0.0,0.0,58,0.00,,,0.00,meteohub,2013-01-05 05:59:00,
2013-01-04 22:04:00,44.4,30.2,30.31,North,11,0.0,0.0,57,0.00,,,0.00,meteohub,2013-01-05 06:04:00,
2013-01-04 22:09:00,44.4,30.2,30.31,North,11,0.0,0.0,57,0.00,,,0.00,meteohub,2013-01-05 06:09:00,
2013-01-04 22:14:00,44.4,30.2,30.31,North,11,0.0,0.0,57,0.00,,,0.00,meteohub,2013-01-05 06:14:00,
2013-01-04 22:19:00,44.4,30.9,30.31,North,11,0.0,0.0,59,0.00,,,0.00,meteohub,2013-01-05 06:19:00,
2013-01-04 22:24:00,44.2,30.4,30.31,North,11,0.0,0.0,58,0.00,,,0.00,meteohub,2013-01-05 06:24:00,
2013-01-04 22:30:00,44.2,30.7,30.31,North,11,0.0,0.0,59,0.00,,,0.00,meteohub,2013-01-05 06:30:00,
2013-01-04 22:35:00,43.9,30.9,30.31,North,11,0.0,0.0,60,0.00,,,0.00,meteohub,2013-01-05 06:35:00,
2013-01-04 22:40:00,43.7,30.7,30.30,North,11,0.0,0.0,60,0.00,,,0.00,meteohub,2013-01-05 06:40:00,
2013-01-04 22:45:00,43.5,30.6,30.30,North,11,0.0,0.0,60,0.00,,,0.00,meteohub,2013-01-05 06:45:00,
2013-01-04 22:50:00,43.3,30.7,30.31,North,11,0.0,0.0,61,0.00,,,0.00,meteohub,2013-01-05 06:50:00,
2013-01-04 22:55:00,43.2,30.6,30.31,North,11,0.0,0.0,61,0.00,,,0.00,meteohub,2013-01-05 06:55:00,
2013-01-04 23:00:00,43.2,30.2,30.30,North,11,0.0,0.0,60,0.00,,,0.00,meteohub,2013-01-05 07:00:00,
2013-01-04 23:05:00,43.0,30.4,30.31,North,11,0.0,0.0,61,0.00,,,0.00,meteohub,2013-01-05 07:05:00,
2013-01-04 23:10:00,43.0,30.4,30.31,North,11,0.0,0.0,61,0.00,,,0.00,meteohub,2013-01-05 07:10:00,
2013-01-04 23:16:00,42.6,30.2,30.31,North,11,0.0,0.0,61,0.00,,,0.00,meteohub,2013-01-05 07:16:00,
2013-01-04 23:21:00,42.4,30.4,30.30,North,11,0.0,0.0,62,0.00,,,0.00,meteohub,2013-01-05 07:21:00,
2013-01-04 23:26:00,42.4,30.7,30.31,North,11,0.0,0.0,63,0.00,,,0.00,meteohub,2013-01-05 07:26:00,
2013-01-04 23:31:00,42.3,30.2,30.30,North,11,0.0,0.0,62,0.00,,,0.00,meteohub,2013-01-05 07:31:00,
2013-01-04 23:36:00,42.1,30.4,30.30,North,11,0.0,0.0,63,0.00,,,0.00,meteohub,2013-01-05 07:36:00,
2013-01-04 23:41:00,41.9,30.6,30.30,North,11,0.0,0.0,64,0.00,,,0.00,meteohub,2013-01-05 07:41:00,
2013-01-04 23:46:00,41.7,31.3,30.30,North,11,0.0,0.0,66,0.00,,,0.00,meteohub,2013-01-05 07:46:00,
2013-01-04 23:51:00,41.7,31.6,30.30,North,11,0.0,0.0,67,0.00,,,0.00,meteohub,2013-01-05 07:51:00,
2013-01-04 23:56:00,41.7,31.3,30.30,North,11,0.0,0.0,66,0.00,,,0.00,meteohub,2013-01-05 07:56:00,